Flight Track Log - Related Links

Times and Time Zones

All times are in EDT time to prevent confusion due to time zone crossing. See the NDU99 flight status page for this flight to view local times or setup timezone preferences in your user account.

Time Position Orientation Groundspeed Altitude Reporting Facility
EDT Latitude Longitude Course Direction KTS MPH feet Rate Location/Type
Fri 11:22:45 PM 46.2133 -96.0897 325° Northwest 125 144 3,800  Level Minneapolis Center
Fri 11:23:46 PM 46.2386 -96.1183 322° Northwest 113 130 4,700 836 Climbing Minneapolis Center
Fri 11:24:47 PM 46.2628 -96.1464 321° Northwest 106 122 5,500 689 Climbing Minneapolis Center
Fri 11:25:48 PM 46.2869 -96.1728 323° Northwest 112 129 6,100 244 Climbing Minneapolis Center
Fri 11:26:50 PM 46.3203 -96.2050 326° Northwest 136 157 6,000 -49 Descending Minneapolis Center
Fri 11:27:00 PM 46.4211 -96.3044 325° Northwest  Level FlightAware Approximate
Fri 11:27:51 PM 46.3556 -96.2392 326° Northwest 144 166 6,000  Level Minneapolis Center
Fri 11:28:52 PM 46.3825 -96.2664 325° Northwest 146 168 5,900  Descending Minneapolis Center
Fri 11:29:53 PM 46.4214 -96.3072 324° Northwest 143 165 6,000 49 Climbing Minneapolis Center
Fri 11:30:54 PM 46.4550 -96.3414 325° Northwest 144 166 6,000  Level Minneapolis Center
Fri 11:31:55 PM 46.4856 -96.3731 324° Northwest 141 162 6,000  Level Minneapolis Center
Fri 11:33:00 PM 46.5162 -96.4052 324° Northwest  Level FlightAware Approximate
Fri 11:40:00 PM 46.7141 -96.6139 324° Northwest  Level FlightAware Approximate
Fri 11:41:00 PM 46.7445 -96.6389 331° Northwest  Level FlightAware Approximate
Fri 11:42:00 PM 46.7751 -96.6634 331° Northwest  Level FlightAware Approximate
Fri 11:43:00 PM 46.8049 -96.6895 319° Northwest  Level FlightAware Approximate
Fri 11:44:00 PM 46.8315 -96.7226 319° Northwest  Level FlightAware Approximate
Fri 11:45:00 PM 46.8580 -96.7558 319° Northwest  Level FlightAware Approximate
Fri 11:46:00 PM 46.8880 -96.7809 336° Northwest  Level FlightAware Approximate
Fri 11:47:00 PM 46.9167 -96.8000 336° Northwest  Level FlightAware Approximate
Fri 11:48:00 PM 46.9207 -96.8158 336° Northwest  Level Estimated
Fri 11:49:00 PM 46.9207 -96.8158 336° Northwest  Level Estimated
Fri 11:50:00 PM 46.9207 -96.8158 336° Northwest  Level Estimated

Login

Don't have an account? Register now (free) for customized features, flight alerts, and more!